sensor_id;sensor_type;location;lat;lon;timestamp;temperature;humidity
65231;DHT22;51813;40.666;16.602;2022-09-09T00:15:21;25.00;70.70
65231;DHT22;51813;40.666;16.602;2022-09-09T00:18:03;25.00;71.20
65231;DHT22;51813;40.666;16.602;2022-09-09T00:20:35;25.00;69.80
65231;DHT22;51813;40.666;16.602;2022-09-09T00:23:14;25.00;69.70
65231;DHT22;51813;40.666;16.602;2022-09-09T00:28:23;25.00;71.10
65231;DHT22;51813;40.666;16.602;2022-09-09T00:30:50;25.00;72.70
65231;DHT22;51813;40.666;16.602;2022-09-09T00:33:18;25.00;73.00
65231;DHT22;51813;40.666;16.602;2022-09-09T00:35:49;24.90;73.30
65231;DHT22;51813;40.666;16.602;2022-09-09T00:38:38;24.90;73.30
65231;DHT22;51813;40.666;16.602;2022-09-09T00:43:56;24.90;70.40
65231;DHT22;51813;40.666;16.602;2022-09-09T00:57:35;25.00;71.80
65231;DHT22;51813;40.666;16.602;2022-09-09T01:00:35;24.90;72.50
65231;DHT22;51813;40.666;16.602;2022-09-09T01:03:37;24.90;72.90
65231;DHT22;51813;40.666;16.602;2022-09-09T01:17:04;25.00;72.50
65231;DHT22;51813;40.666;16.602;2022-09-09T01:27:35;25.00;71.00
65231;DHT22;51813;40.666;16.602;2022-09-09T01:30:04;24.90;70.40
65231;DHT22;51813;40.666;16.602;2022-09-09T01:35:11;25.00;69.40
65231;DHT22;51813;40.666;16.602;2022-09-09T01:37:38;25.00;69.30
65231;DHT22;51813;40.666;16.602;2022-09-09T01:40:04;25.00;69.20
65231;DHT22;51813;40.666;16.602;2022-09-09T01:42:30;25.00;70.10
65231;DHT22;51813;40.666;16.602;2022-09-09T01:44:56;25.00;70.10
65231;DHT22;51813;40.666;16.602;2022-09-09T01:47:21;24.90;70.60
65231;DHT22;51813;40.666;16.602;2022-09-09T01:49:47;24.90;71.30
65231;DHT22;51813;40.666;16.602;2022-09-09T01:52:13;24.90;71.60
65231;DHT22;51813;40.666;16.602;2022-09-09T01:54:39;24.90;70.60
65231;DHT22;51813;40.666;16.602;2022-09-09T01:57:21;24.90;69.60
65231;DHT22;51813;40.666;16.602;2022-09-09T02:00:00;24.90;69.20
65231;DHT22;51813;40.666;16.602;2022-09-09T02:05:17;25.00;70.60
65231;DHT22;51813;40.666;16.602;2022-09-09T02:07:49;25.00;71.90
65231;DHT22;51813;40.666;16.602;2022-09-09T02:10:31;24.90;72.40
65231;DHT22;51813;40.666;16.602;2022-09-09T02:13:12;24.90;72.10
65231;DHT22;51813;40.666;16.602;2022-09-09T02:18:24;24.80;73.40
65231;DHT22;51813;40.666;16.602;2022-09-09T02:20:53;24.90;70.10
65231;DHT22;51813;40.666;16.602;2022-09-09T02:23:19;24.90;69.60
65231;DHT22;51813;40.666;16.602;2022-09-09T02:25:46;24.90;69.60
65231;DHT22;51813;40.666;16.602;2022-09-09T02:28:14;24.90;70.00
65231;DHT22;51813;40.666;16.602;2022-09-09T02:30:42;24.90;72.80
65231;DHT22;51813;40.666;16.602;2022-09-09T02:33:12;24.90;74.60
65231;DHT22;51813;40.666;16.602;2022-09-09T02:35:40;24.90;73.90
65231;DHT22;51813;40.666;16.602;2022-09-09T02:38:11;24.90;72.40
65231;DHT22;51813;40.666;16.602;2022-09-09T02:40:37;24.80;72.90
65231;DHT22;51813;40.666;16.602;2022-09-09T02:43:03;24.80;74.40
65231;DHT22;51813;40.666;16.602;2022-09-09T02:45:42;24.80;71.20
65231;DHT22;51813;40.666;16.602;2022-09-09T02:48:25;24.90;71.20
65231;DHT22;51813;40.666;16.602;2022-09-09T02:51:03;24.90;71.00
65231;DHT22;51813;40.666;16.602;2022-09-09T02:53:37;24.90;74.90
65231;DHT22;51813;40.666;16.602;2022-09-09T02:56:10;24.90;74.90
65231;DHT22;51813;40.666;16.602;2022-09-09T02:58:39;24.80;76.20
65231;DHT22;51813;40.666;16.602;2022-09-09T03:01:05;24.80;76.30
65231;DHT22;51813;40.666;16.602;2022-09-09T03:03:31;24.80;76.20
65231;DHT22;51813;40.666;16.602;2022-09-09T03:05:57;24.80;77.10
65231;DHT22;51813;40.666;16.602;2022-09-09T03:08:22;24.80;78.00
65231;DHT22;51813;40.666;16.602;2022-09-09T03:10:48;24.80;77.00
65231;DHT22;51813;40.666;16.602;2022-09-09T03:13:14;24.80;74.70
65231;DHT22;51813;40.666;16.602;2022-09-09T03:15:40;24.80;75.60
65231;DHT22;51813;40.666;16.602;2022-09-09T03:18:06;24.80;76.70
65231;DHT22;51813;40.666;16.602;2022-09-09T03:20:32;24.80;76.80
65231;DHT22;51813;40.666;16.602;2022-09-09T03:22:59;24.80;76.20
65231;DHT22;51813;40.666;16.602;2022-09-09T03:25:25;24.80;76.90
65231;DHT22;51813;40.666;16.602;2022-09-09T03:27:52;24.80;77.50
65231;DHT22;51813;40.666;16.602;2022-09-09T03:30:24;24.80;76.80
65231;DHT22;51813;40.666;16.602;2022-09-09T03:32:50;24.80;76.40
65231;DHT22;51813;40.666;16.602;2022-09-09T03:35:16;24.80;76.30
65231;DHT22;51813;40.666;16.602;2022-09-09T03:37:42;24.80;76.50
65231;DHT22;51813;40.666;16.602;2022-09-09T03:40:08;24.80;75.50
65231;DHT22;51813;40.666;16.602;2022-09-09T03:42:38;24.80;76.10
65231;DHT22;51813;40.666;16.602;2022-09-09T03:45:08;24.80;74.90
65231;DHT22;51813;40.666;16.602;2022-09-09T03:47:34;24.80;76.10
65231;DHT22;51813;40.666;16.602;2022-09-09T03:50:00;24.80;76.30
65231;DHT22;51813;40.666;16.602;2022-09-09T03:52:26;24.80;75.70
65231;DHT22;51813;40.666;16.602;2022-09-09T03:54:53;24.80;76.10
65231;DHT22;51813;40.666;16.602;2022-09-09T03:57:19;24.80;75.10
65231;DHT22;51813;40.666;16.602;2022-09-09T03:59:45;24.80;75.60
65231;DHT22;51813;40.666;16.602;2022-09-09T04:02:11;24.80;75.10
65231;DHT22;51813;40.666;16.602;2022-09-09T04:04:37;24.80;73.50
65231;DHT22;51813;40.666;16.602;2022-09-09T04:07:03;24.90;75.20
65231;DHT22;51813;40.666;16.602;2022-09-09T04:09:31;24.90;75.30
65231;DHT22;51813;40.666;16.602;2022-09-09T04:11:57;24.80;74.30
65231;DHT22;51813;40.666;16.602;2022-09-09T04:14:23;24.90;74.20
65231;DHT22;51813;40.666;16.602;2022-09-09T04:16:48;24.80;74.40
65231;DHT22;51813;40.666;16.602;2022-09-09T04:19:14;24.80;73.70
65231;DHT22;51813;40.666;16.602;2022-09-09T04:21:41;24.80;74.10
65231;DHT22;51813;40.666;16.602;2022-09-09T04:24:07;24.80;74.80
65231;DHT22;51813;40.666;16.602;2022-09-09T04:26:34;24.80;73.50
65231;DHT22;51813;40.666;16.602;2022-09-09T04:29:00;24.90;73.10
65231;DHT22;51813;40.666;16.602;2022-09-09T04:31:26;24.90;72.80
65231;DHT22;51813;40.666;16.602;2022-09-09T04:33:52;24.90;72.80
65231;DHT22;51813;40.666;16.602;2022-09-09T04:36:18;24.90;73.00
65231;DHT22;51813;40.666;16.602;2022-09-09T04:38:45;24.90;73.20
65231;DHT22;51813;40.666;16.602;2022-09-09T04:41:11;24.90;73.70
65231;DHT22;51813;40.666;16.602;2022-09-09T04:43:38;24.80;74.20
65231;DHT22;51813;40.666;16.602;2022-09-09T04:46:04;24.80;74.00
65231;DHT22;51813;40.666;16.602;2022-09-09T04:48:29;24.80;73.30
65231;DHT22;51813;40.666;16.602;2022-09-09T04:51:02;24.80;74.90
65231;DHT22;51813;40.666;16.602;2022-09-09T04:53:29;24.80;73.00
65231;DHT22;51813;40.666;16.602;2022-09-09T04:56:16;24.80;73.80
65231;DHT22;51813;40.666;16.602;2022-09-09T04:58:42;24.90;74.10
65231;DHT22;51813;40.666;16.602;2022-09-09T05:01:16;24.80;73.70
65231;DHT22;51813;40.666;16.602;2022-09-09T05:03:43;24.80;74.00
65231;DHT22;51813;40.666;16.602;2022-09-09T05:06:13;24.80;73.70
65231;DHT22;51813;40.666;16.602;2022-09-09T05:08:40;24.80;74.40
65231;DHT22;51813;40.666;16.602;2022-09-09T05:11:16;24.80;74.10
65231;DHT22;51813;40.666;16.602;2022-09-09T05:13:42;24.80;74.80
65231;DHT22;51813;40.666;16.602;2022-09-09T05:16:08;24.80;73.90
65231;DHT22;51813;40.666;16.602;2022-09-09T05:18:37;24.80;73.80
65231;DHT22;51813;40.666;16.602;2022-09-09T05:21:03;24.80;73.70
65231;DHT22;51813;40.666;16.602;2022-09-09T05:23:28;24.80;74.30
65231;DHT22;51813;40.666;16.602;2022-09-09T05:25:58;24.80;74.70
65231;DHT22;51813;40.666;16.602;2022-09-09T05:28:27;24.80;74.60
65231;DHT22;51813;40.666;16.602;2022-09-09T05:31:00;24.80;74.30
65231;DHT22;51813;40.666;16.602;2022-09-09T05:33:29;24.80;74.40
65231;DHT22;51813;40.666;16.602;2022-09-09T05:36:02;24.80;74.50
65231;DHT22;51813;40.666;16.602;2022-09-09T05:38:29;24.80;74.00
65231;DHT22;51813;40.666;16.602;2022-09-09T05:40:56;24.80;73.70
65231;DHT22;51813;40.666;16.602;2022-09-09T05:43:23;24.80;74.10
65231;DHT22;51813;40.666;16.602;2022-09-09T05:46:05;24.90;74.00
65231;DHT22;51813;40.666;16.602;2022-09-09T05:48:32;24.90;74.40
65231;DHT22;51813;40.666;16.602;2022-09-09T05:50:58;24.90;74.60
65231;DHT22;51813;40.666;16.602;2022-09-09T05:53:28;24.80;74.20
65231;DHT22;51813;40.666;16.602;2022-09-09T05:56:05;24.80;74.20
65231;DHT22;51813;40.666;16.602;2022-09-09T05:58:34;24.80;74.60
65231;DHT22;51813;40.666;16.602;2022-09-09T06:01:05;24.80;75.50
65231;DHT22;51813;40.666;16.602;2022-09-09T06:03:31;24.80;76.00
65231;DHT22;51813;40.666;16.602;2022-09-09T06:06:01;24.80;76.40
65231;DHT22;51813;40.666;16.602;2022-09-09T06:08:31;24.80;76.70
65231;DHT22;51813;40.666;16.602;2022-09-09T06:11:02;24.80;75.20
65231;DHT22;51813;40.666;16.602;2022-09-09T06:13:29;24.80;74.60
65231;DHT22;51813;40.666;16.602;2022-09-09T06:15:54;24.80;75.00
65231;DHT22;51813;40.666;16.602;2022-09-09T06:18:20;24.80;76.00
65231;DHT22;51813;40.666;16.602;2022-09-09T06:20:59;24.80;75.70
65231;DHT22;51813;40.666;16.602;2022-09-09T06:23:32;24.80;75.60
65231;DHT22;51813;40.666;16.602;2022-09-09T06:26:13;24.80;75.60
65231;DHT22;51813;40.666;16.602;2022-09-09T06:28:39;24.80;75.50
65231;DHT22;51813;40.666;16.602;2022-09-09T06:31:10;24.80;74.40
65231;DHT22;51813;40.666;16.602;2022-09-09T06:33:38;24.90;73.60
65231;DHT22;51813;40.666;16.602;2022-09-09T06:36:11;24.90;73.80
65231;DHT22;51813;40.666;16.602;2022-09-09T06:38:37;24.90;75.50
65231;DHT22;51813;40.666;16.602;2022-09-09T06:41:03;24.80;76.00
65231;DHT22;51813;40.666;16.602;2022-09-09T06:43:31;24.80;76.30
65231;DHT22;51813;40.666;16.602;2022-09-09T06:45:58;24.80;76.70
65231;DHT22;51813;40.666;16.602;2022-09-09T06:48:24;24.80;77.10
65231;DHT22;51813;40.666;16.602;2022-09-09T06:53:37;24.80;76.40
65231;DHT22;51813;40.666;16.602;2022-09-09T06:58:44;24.80;77.10
65231;DHT22;51813;40.666;16.602;2022-09-09T07:01:12;24.80;77.10
65231;DHT22;51813;40.666;16.602;2022-09-09T07:03:42;24.80;76.70
65231;DHT22;51813;40.666;16.602;2022-09-09T07:06:15;24.80;76.30
65231;DHT22;51813;40.666;16.602;2022-09-09T07:08:42;24.80;75.70
65231;DHT22;51813;40.666;16.602;2022-09-09T07:11:09;24.80;75.60
65231;DHT22;51813;40.666;16.602;2022-09-09T07:13:35;24.90;73.90
65231;DHT22;51813;40.666;16.602;2022-09-09T07:16:09;24.90;74.20
65231;DHT22;51813;40.666;16.602;2022-09-09T07:18:35;25.00;74.10
65231;DHT22;51813;40.666;16.602;2022-09-09T07:21:02;25.00;74.60
65231;DHT22;51813;40.666;16.602;2022-09-09T07:23:28;25.10;74.60
65231;DHT22;51813;40.666;16.602;2022-09-09T07:25:54;25.10;74.10
65231;DHT22;51813;40.666;16.602;2022-09-09T07:28:21;25.10;74.50
65231;DHT22;51813;40.666;16.602;2022-09-09T07:30:57;25.10;74.70
65231;DHT22;51813;40.666;16.602;2022-09-09T07:33:24;25.10;74.80
65231;DHT22;51813;40.666;16.602;2022-09-09T07:35:50;25.10;74.70
65231;DHT22;51813;40.666;16.602;2022-09-09T07:38:17;25.10;74.50
65231;DHT22;51813;40.666;16.602;2022-09-09T07:40:44;25.20;74.20
65231;DHT22;51813;40.666;16.602;2022-09-09T07:43:10;25.20;73.50
65231;DHT22;51813;40.666;16.602;2022-09-09T07:45:36;25.20;73.20
65231;DHT22;51813;40.666;16.602;2022-09-09T07:48:03;25.30;72.80
65231;DHT22;51813;40.666;16.602;2022-09-09T07:50:29;25.30;72.30
65231;DHT22;51813;40.666;16.602;2022-09-09T07:52:55;25.30;71.90
65231;DHT22;51813;40.666;16.602;2022-09-09T07:55:21;25.30;71.80
65231;DHT22;51813;40.666;16.602;2022-09-09T07:57:51;25.30;71.80
65231;DHT22;51813;40.666;16.602;2022-09-09T08:00:17;25.30;71.60
65231;DHT22;51813;40.666;16.602;2022-09-09T08:02:44;25.30;71.50
65231;DHT22;51813;40.666;16.602;2022-09-09T08:05:12;25.30;71.40
65231;DHT22;51813;40.666;16.602;2022-09-09T08:07:38;25.30;71.20
65231;DHT22;51813;40.666;16.602;2022-09-09T08:10:04;25.40;70.60
65231;DHT22;51813;40.666;16.602;2022-09-09T08:12:30;25.40;70.10
65231;DHT22;51813;40.666;16.602;2022-09-09T08:14:55;25.50;69.10
65231;DHT22;51813;40.666;16.602;2022-09-09T08:17:21;25.50;68.80
65231;DHT22;51813;40.666;16.602;2022-09-09T08:19:47;25.50;69.30
65231;DHT22;51813;40.666;16.602;2022-09-09T08:22:12;25.50;69.30
65231;DHT22;51813;40.666;16.602;2022-09-09T08:24:38;25.50;69.40
65231;DHT22;51813;40.666;16.602;2022-09-09T08:27:04;25.50;68.70
65231;DHT22;51813;40.666;16.602;2022-09-09T08:29:30;25.50;68.60
65231;DHT22;51813;40.666;16.602;2022-09-09T08:31:57;25.60;68.70
65231;DHT22;51813;40.666;16.602;2022-09-09T08:34:24;25.60;68.30
65231;DHT22;51813;40.666;16.602;2022-09-09T08:36:53;25.70;68.40
65231;DHT22;51813;40.666;16.602;2022-09-09T08:39:20;25.70;67.70
65231;DHT22;51813;40.666;16.602;2022-09-09T08:50:27;25.80;68.40
65231;DHT22;51813;40.666;16.602;2022-09-09T08:55:43;25.80;68.20
65231;DHT22;51813;40.666;16.602;2022-09-09T08:58:27;25.80;68.00
65231;DHT22;51813;40.666;16.602;2022-09-09T09:09:17;25.90;67.40
65231;DHT22;51813;40.666;16.602;2022-09-09T09:11:59;25.90;67.40
65231;DHT22;51813;40.666;16.602;2022-09-09T09:14:28;25.90;67.70
65231;DHT22;51813;40.666;16.602;2022-09-09T09:17:01;25.90;67.90
65231;DHT22;51813;40.666;16.602;2022-09-09T09:19:28;25.90;68.00
65231;DHT22;51813;40.666;16.602;2022-09-09T09:27:34;26.00;66.90
65231;DHT22;51813;40.666;16.602;2022-09-09T09:30:10;26.00;66.40
65231;DHT22;51813;40.666;16.602;2022-09-09T09:32:39;26.00;66.20
65231;DHT22;51813;40.666;16.602;2022-09-09T09:35:13;26.00;66.40
65231;DHT22;51813;40.666;16.602;2022-09-09T09:37:40;26.00;66.10
65231;DHT22;51813;40.666;16.602;2022-09-09T09:40:18;26.00;65.90
65231;DHT22;51813;40.666;16.602;2022-09-09T09:42:56;26.00;65.80
65231;DHT22;51813;40.666;16.602;2022-09-09T09:45:41;26.00;65.90
65231;DHT22;51813;40.666;16.602;2022-09-09T09:48:11;26.00;64.80
65231;DHT22;51813;40.666;16.602;2022-09-09T09:50:54;26.10;64.60
65231;DHT22;51813;40.666;16.602;2022-09-09T09:53:28;26.10;64.90
65231;DHT22;51813;40.666;16.602;2022-09-09T09:56:05;26.20;65.00
65231;DHT22;51813;40.666;16.602;2022-09-09T09:58:37;26.20;64.30
65231;DHT22;51813;40.666;16.602;2022-09-09T10:01:04;26.20;65.10
65231;DHT22;51813;40.666;16.602;2022-09-09T10:03:32;26.10;64.90
65231;DHT22;51813;40.666;16.602;2022-09-09T10:06:03;26.10;64.90
65231;DHT22;51813;40.666;16.602;2022-09-09T10:08:32;26.10;64.60
65231;DHT22;51813;40.666;16.602;2022-09-09T10:14:18;26.20;64.20
65231;DHT22;51813;40.666;16.602;2022-09-09T10:20:31;26.30;65.00
65231;DHT22;51813;40.666;16.602;2022-09-09T10:22:39;26.30;65.00
65231;DHT22;51813;40.666;16.602;2022-09-09T10:25:35;26.30;64.60
65231;DHT22;51813;40.666;16.602;2022-09-09T10:28:21;26.30;65.70
65231;DHT22;51813;40.666;16.602;2022-09-09T10:31:13;26.30;65.00
65231;DHT22;51813;40.666;16.602;2022-09-09T10:36:23;26.50;64.10
65231;DHT22;51813;40.666;16.602;2022-09-09T10:39:04;26.60;63.40
65231;DHT22;51813;40.666;16.602;2022-09-09T10:55:25;27.10;60.70
65231;DHT22;51813;40.666;16.602;2022-09-09T10:57:55;27.00;61.50
65231;DHT22;51813;40.666;16.602;2022-09-09T11:00:23;26.90;61.40
65231;DHT22;51813;40.666;16.602;2022-09-09T11:02:59;26.80;62.00
65231;DHT22;51813;40.666;16.602;2022-09-09T11:05:30;26.80;62.10
65231;DHT22;51813;40.666;16.602;2022-09-09T11:08:26;27.00;62.10
65231;DHT22;51813;40.666;16.602;2022-09-09T11:13:35;27.20;61.20
65231;DHT22;51813;40.666;16.602;2022-09-09T11:18:47;27.30;60.70
65231;DHT22;51813;40.666;16.602;2022-09-09T11:21:21;27.30;60.90
65231;DHT22;51813;40.666;16.602;2022-09-09T11:23:55;27.40;60.40
65231;DHT22;51813;40.666;16.602;2022-09-09T11:26:32;27.40;60.10
65231;DHT22;51813;40.666;16.602;2022-09-09T11:40:33;27.40;59.40
65231;DHT22;51813;40.666;16.602;2022-09-09T11:43:18;27.40;59.40
65231;DHT22;51813;40.666;16.602;2022-09-09T11:45:52;27.40;58.70
65231;DHT22;51813;40.666;16.602;2022-09-09T11:51:03;27.50;59.70
65231;DHT22;51813;40.666;16.602;2022-09-09T11:53:31;27.50;60.20
65231;DHT22;51813;40.666;16.602;2022-09-09T11:56:12;27.50;60.90
65231;DHT22;51813;40.666;16.602;2022-09-09T11:59:03;27.50;61.00
65231;DHT22;51813;40.666;16.602;2022-09-09T12:04:16;27.40;61.50
65231;DHT22;51813;40.666;16.602;2022-09-09T12:06:45;27.40;61.50
65231;DHT22;51813;40.666;16.602;2022-09-09T12:12:23;27.50;61.70
65231;DHT22;51813;40.666;16.602;2022-09-09T12:17:50;27.50;61.70
65231;DHT22;51813;40.666;16.602;2022-09-09T12:20:37;27.40;61.70
65231;DHT22;51813;40.666;16.602;2022-09-09T12:34:38;27.70;61.40
65231;DHT22;51813;40.666;16.602;2022-09-09T12:40:00;27.80;60.80
65231;DHT22;51813;40.666;16.602;2022-09-09T12:42:28;27.80;60.80
65231;DHT22;51813;40.666;16.602;2022-09-09T12:44:59;27.90;61.40
65231;DHT22;51813;40.666;16.602;2022-09-09T12:47:35;27.90;61.10
65231;DHT22;51813;40.666;16.602;2022-09-09T12:50:02;27.90;61.00
65231;DHT22;51813;40.666;16.602;2022-09-09T12:52:30;27.90;61.00
65231;DHT22;51813;40.666;16.602;2022-09-09T12:54:59;27.90;61.20
65231;DHT22;51813;40.666;16.602;2022-09-09T12:57:26;27.90;61.10
65231;DHT22;51813;40.666;16.602;2022-09-09T13:00:19;27.90;61.10
65231;DHT22;51813;40.666;16.602;2022-09-09T13:02:54;27.90;61.10
65231;DHT22;51813;40.666;16.602;2022-09-09T13:05:22;27.90;61.10
65231;DHT22;51813;40.666;16.602;2022-09-09T13:07:48;27.90;60.90
65231;DHT22;51813;40.666;16.602;2022-09-09T13:10:19;28.00;60.90
65231;DHT22;51813;40.666;16.602;2022-09-09T13:12:47;28.00;61.10
65231;DHT22;51813;40.666;16.602;2022-09-09T13:15:23;28.00;61.30
65231;DHT22;51813;40.666;16.602;2022-09-09T13:17:52;28.00;61.20
65231;DHT22;51813;40.666;16.602;2022-09-09T13:20:19;28.00;61.20
65231;DHT22;51813;40.666;16.602;2022-09-09T13:22:48;28.10;61.50
65231;DHT22;51813;40.666;16.602;2022-09-09T13:25:27;28.10;61.30
65231;DHT22;51813;40.666;16.602;2022-09-09T13:27:57;28.10;61.00
65231;DHT22;51813;40.666;16.602;2022-09-09T13:30:32;28.10;60.70
65231;DHT22;51813;40.666;16.602;2022-09-09T13:35:48;28.20;60.20
65231;DHT22;51813;40.666;16.602;2022-09-09T13:38:15;28.20;60.00
65231;DHT22;51813;40.666;16.602;2022-09-09T13:40:56;28.10;60.20
65231;DHT22;51813;40.666;16.602;2022-09-09T13:43:23;28.10;60.60
65231;DHT22;51813;40.666;16.602;2022-09-09T13:45:55;28.10;60.50
65231;DHT22;51813;40.666;16.602;2022-09-09T13:48:22;28.10;60.30
65231;DHT22;51813;40.666;16.602;2022-09-09T13:51:34;28.10;59.70
65231;DHT22;51813;40.666;16.602;2022-09-09T13:54:00;28.20;59.30
65231;DHT22;51813;40.666;16.602;2022-09-09T13:56:26;27.90;60.00
65231;DHT22;51813;40.666;16.602;2022-09-09T13:58:52;27.70;60.40
65231;DHT22;51813;40.666;16.602;2022-09-09T14:01:18;27.50;60.90
65231;DHT22;51813;40.666;16.602;2022-09-09T14:03:43;27.60;61.10
65231;DHT22;51813;40.666;16.602;2022-09-09T14:06:12;27.70;60.50
65231;DHT22;51813;40.666;16.602;2022-09-09T14:08:39;27.80;60.40
65231;DHT22;51813;40.666;16.602;2022-09-09T14:11:07;27.90;60.00
65231;DHT22;51813;40.666;16.602;2022-09-09T14:13:34;27.90;59.50
65231;DHT22;51813;40.666;16.602;2022-09-09T14:15:59;28.00;59.60
65231;DHT22;51813;40.666;16.602;2022-09-09T14:18:25;28.00;59.60
65231;DHT22;51813;40.666;16.602;2022-09-09T14:20:51;28.00;59.70
65231;DHT22;51813;40.666;16.602;2022-09-09T14:23:17;28.00;59.60
65231;DHT22;51813;40.666;16.602;2022-09-09T14:25:45;28.00;59.50
65231;DHT22;51813;40.666;16.602;2022-09-09T14:28:12;28.10;59.40
65231;DHT22;51813;40.666;16.602;2022-09-09T14:30:40;28.10;59.40
65231;DHT22;51813;40.666;16.602;2022-09-09T14:33:13;28.20;59.50
65231;DHT22;51813;40.666;16.602;2022-09-09T14:35:39;28.20;59.40
65231;DHT22;51813;40.666;16.602;2022-09-09T14:38:06;28.20;59.40
65231;DHT22;51813;40.666;16.602;2022-09-09T14:40:34;28.20;59.40
65231;DHT22;51813;40.666;16.602;2022-09-09T14:43:01;28.20;60.00
65231;DHT22;51813;40.666;16.602;2022-09-09T14:45:27;28.30;59.70
65231;DHT22;51813;40.666;16.602;2022-09-09T14:47:54;28.20;59.90
65231;DHT22;51813;40.666;16.602;2022-09-09T14:50:20;28.20;60.20
65231;DHT22;51813;40.666;16.602;2022-09-09T14:52:46;28.20;59.80
65231;DHT22;51813;40.666;16.602;2022-09-09T14:55:13;28.20;60.10
65231;DHT22;51813;40.666;16.602;2022-09-09T14:57:39;28.20;59.90
65231;DHT22;51813;40.666;16.602;2022-09-09T15:00:07;28.20;59.90
65231;DHT22;51813;40.666;16.602;2022-09-09T15:02:33;28.30;60.00
65231;DHT22;51813;40.666;16.602;2022-09-09T15:04:59;28.20;60.00
65231;DHT22;51813;40.666;16.602;2022-09-09T15:07:25;28.20;60.20
65231;DHT22;51813;40.666;16.602;2022-09-09T15:09:52;28.20;60.60
65231;DHT22;51813;40.666;16.602;2022-09-09T15:12:18;28.10;61.40
65231;DHT22;51813;40.666;16.602;2022-09-09T15:14:45;28.00;61.00
65231;DHT22;51813;40.666;16.602;2022-09-09T15:17:11;28.00;61.90
65231;DHT22;51813;40.666;16.602;2022-09-09T15:19:37;27.90;61.30
65231;DHT22;51813;40.666;16.602;2022-09-09T15:22:04;27.90;61.90
65231;DHT22;51813;40.666;16.602;2022-09-09T15:24:31;27.80;61.70
65231;DHT22;51813;40.666;16.602;2022-09-09T15:26:58;27.80;61.90
65231;DHT22;51813;40.666;16.602;2022-09-09T15:29:24;27.70;61.90
65231;DHT22;51813;40.666;16.602;2022-09-09T15:31:50;27.70;62.20
65231;DHT22;51813;40.666;16.602;2022-09-09T15:34:16;27.60;62.40
65231;DHT22;51813;40.666;16.602;2022-09-09T15:36:45;27.60;62.90
65231;DHT22;51813;40.666;16.602;2022-09-09T15:39:15;27.60;62.80
65231;DHT22;51813;40.666;16.602;2022-09-09T15:41:45;27.50;62.10
65231;DHT22;51813;40.666;16.602;2022-09-09T15:44:12;27.60;62.20
65231;DHT22;51813;40.666;16.602;2022-09-09T15:46:51;27.50;62.50
65231;DHT22;51813;40.666;16.602;2022-09-09T15:49:23;27.50;62.60
65231;DHT22;51813;40.666;16.602;2022-09-09T15:51:54;27.40;62.90
65231;DHT22;51813;40.666;16.602;2022-09-09T15:54:22;27.40;62.80
65231;DHT22;51813;40.666;16.602;2022-09-09T15:56:57;27.40;63.00
65231;DHT22;51813;40.666;16.602;2022-09-09T15:59:25;27.30;63.10
65231;DHT22;51813;40.666;16.602;2022-09-09T16:01:50;27.40;63.20
65231;DHT22;51813;40.666;16.602;2022-09-09T16:04:17;27.40;62.80
65231;DHT22;51813;40.666;16.602;2022-09-09T16:06:52;27.40;62.70
65231;DHT22;51813;40.666;16.602;2022-09-09T16:09:18;27.30;62.40
65231;DHT22;51813;40.666;16.602;2022-09-09T16:11:44;27.30;62.60
65231;DHT22;51813;40.666;16.602;2022-09-09T16:14:10;27.20;62.40
65231;DHT22;51813;40.666;16.602;2022-09-09T16:16:36;27.20;62.10
65231;DHT22;51813;40.666;16.602;2022-09-09T16:19:05;27.20;61.70
65231;DHT22;51813;40.666;16.602;2022-09-09T16:21:37;27.20;61.80
65231;DHT22;51813;40.666;16.602;2022-09-09T16:24:06;27.20;62.40
65231;DHT22;51813;40.666;16.602;2022-09-09T16:26:34;27.30;62.30
65231;DHT22;51813;40.666;16.602;2022-09-09T16:29:00;27.20;62.40
65231;DHT22;51813;40.666;16.602;2022-09-09T16:31:28;27.20;62.40
65231;DHT22;51813;40.666;16.602;2022-09-09T16:33:54;27.10;62.60
65231;DHT22;51813;40.666;16.602;2022-09-09T16:36:23;27.10;62.70
65231;DHT22;51813;40.666;16.602;2022-09-09T16:38:53;27.10;62.70
65231;DHT22;51813;40.666;16.602;2022-09-09T16:41:20;27.10;63.00
65231;DHT22;51813;40.666;16.602;2022-09-09T16:43:46;27.10;62.40
65231;DHT22;51813;40.666;16.602;2022-09-09T16:46:13;27.00;61.90
65231;DHT22;51813;40.666;16.602;2022-09-09T16:48:41;27.00;62.20
65231;DHT22;51813;40.666;16.602;2022-09-09T16:51:10;27.00;62.20
65231;DHT22;51813;40.666;16.602;2022-09-09T16:53:36;27.00;61.80
65231;DHT22;51813;40.666;16.602;2022-09-09T16:56:20;27.00;61.20
65231;DHT22;51813;40.666;16.602;2022-09-09T16:58:54;26.90;61.50
65231;DHT22;51813;40.666;16.602;2022-09-09T17:01:24;26.90;61.00
65231;DHT22;51813;40.666;16.602;2022-09-09T17:03:54;26.80;60.40
65231;DHT22;51813;40.666;16.602;2022-09-09T17:06:21;26.90;60.90
65231;DHT22;51813;40.666;16.602;2022-09-09T17:08:47;26.80;60.50
65231;DHT22;51813;40.666;16.602;2022-09-09T17:11:16;26.70;60.30
65231;DHT22;51813;40.666;16.602;2022-09-09T17:13:45;26.70;60.30
65231;DHT22;51813;40.666;16.602;2022-09-09T17:16:11;26.60;60.40
65231;DHT22;51813;40.666;16.602;2022-09-09T17:18:38;26.50;60.60
65231;DHT22;51813;40.666;16.602;2022-09-09T17:21:05;26.50;60.80
65231;DHT22;51813;40.666;16.602;2022-09-09T17:23:33;26.50;61.40
65231;DHT22;51813;40.666;16.602;2022-09-09T17:25:59;26.50;61.80
65231;DHT22;51813;40.666;16.602;2022-09-09T17:28:26;26.40;61.90
65231;DHT22;51813;40.666;16.602;2022-09-09T17:31:00;26.40;62.00
65231;DHT22;51813;40.666;16.602;2022-09-09T17:33:30;26.40;62.20
65231;DHT22;51813;40.666;16.602;2022-09-09T17:35:58;26.40;62.20
65231;DHT22;51813;40.666;16.602;2022-09-09T17:38:25;26.30;62.40
65231;DHT22;51813;40.666;16.602;2022-09-09T17:41:04;26.30;62.20
65231;DHT22;51813;40.666;16.602;2022-09-09T17:43:31;26.30;62.50
65231;DHT22;51813;40.666;16.602;2022-09-09T17:46:12;26.30;62.40
65231;DHT22;51813;40.666;16.602;2022-09-09T17:48:39;26.30;62.50
65231;DHT22;51813;40.666;16.602;2022-09-09T17:51:07;26.20;63.40
65231;DHT22;51813;40.666;16.602;2022-09-09T17:53:38;26.20;62.80
65231;DHT22;51813;40.666;16.602;2022-09-09T17:56:06;26.20;62.80
65231;DHT22;51813;40.666;16.602;2022-09-09T17:58:32;26.20;62.80
65231;DHT22;51813;40.666;16.602;2022-09-09T18:01:04;26.20;63.00
65231;DHT22;51813;40.666;16.602;2022-09-09T18:03:33;26.20;62.90
65231;DHT22;51813;40.666;16.602;2022-09-09T18:06:04;26.20;62.90
65231;DHT22;51813;40.666;16.602;2022-09-09T18:08:30;26.10;63.10